sensor_id;sensor_type;location;lat;lon;timestamp;pressure;altitude;pressure_sealevel;temperature;humidity
38253;BME280;24785;52.372;20.672;2023-02-14T00:03:30;102250.69;;;3.88;100.00
38253;BME280;24785;52.372;20.672;2023-02-14T00:13:31;102276.97;;;3.83;100.00
38253;BME280;24785;52.372;20.672;2023-02-14T00:23:32;102266.41;;;3.75;100.00
38253;BME280;24785;52.372;20.672;2023-02-14T00:33:32;102288.19;;;3.70;100.00
38253;BME280;24785;52.372;20.672;2023-02-14T00:43:33;102294.41;;;3.63;100.00
38253;BME280;24785;52.372;20.672;2023-02-14T00:53:35;102303.25;;;3.55;100.00
38253;BME280;24785;52.372;20.672;2023-02-14T01:03:36;102286.53;;;3.40;100.00
38253;BME280;24785;52.372;20.672;2023-02-14T01:13:38;102288.72;;;3.36;100.00
38253;BME280;24785;52.372;20.672;2023-02-14T01:23:39;102289.41;;;3.30;100.00
38253;BME280;24785;52.372;20.672;2023-02-14T01:33:42;102301.81;;;3.30;100.00
38253;BME280;24785;52.372;20.672;2023-02-14T01:53:50;102296.13;;;3.18;100.00
38253;BME280;24785;52.372;20.672;2023-02-14T02:03:54;102279.22;;;3.04;100.00
38253;BME280;24785;52.372;20.672;2023-02-14T02:13:56;102290.88;;;2.95;100.00
38253;BME280;24785;52.372;20.672;2023-02-14T02:24:17;102306.66;;;2.89;100.00
38253;BME280;24785;52.372;20.672;2023-02-14T03:06:03;102319.22;;;2.64;100.00
38253;BME280;24785;52.372;20.672;2023-02-14T03:16:08;102335.75;;;2.66;100.00
38253;BME280;24785;52.372;20.672;2023-02-14T03:26:21;102341.22;;;2.64;100.00
38253;BME280;24785;52.372;20.672;2023-02-14T03:36:30;102339.91;;;2.60;100.00
38253;BME280;24785;52.372;20.672;2023-02-14T03:47:26;102341.22;;;2.64;100.00
38253;BME280;24785;52.372;20.672;2023-02-14T03:57:50;102340.56;;;2.62;100.00
38253;BME280;24785;52.372;20.672;2023-02-14T04:07:55;102336.09;;;2.63;100.00
38253;BME280;24785;52.372;20.672;2023-02-14T04:17:56;102336.25;;;2.61;100.00
38253;BME280;24785;52.372;20.672;2023-02-14T04:28:15;102347.69;;;2.62;100.00
38253;BME280;24785;52.372;20.672;2023-02-14T04:38:16;102346.72;;;2.55;100.00
38253;BME280;24785;52.372;20.672;2023-02-14T04:48:16;102334.00;;;2.50;100.00
38253;BME280;24785;52.372;20.672;2023-02-14T04:58:17;102360.25;;;2.60;100.00
38253;BME280;24785;52.372;20.672;2023-02-14T05:08:18;102375.19;;;2.52;100.00
38253;BME280;24785;52.372;20.672;2023-02-14T05:18:19;102388.13;;;2.47;100.00
38253;BME280;24785;52.372;20.672;2023-02-14T05:28:20;102383.66;;;2.48;100.00
38253;BME280;24785;52.372;20.672;2023-02-14T05:38:21;102396.22;;;2.46;100.00
38253;BME280;24785;52.372;20.672;2023-02-14T05:48:22;102388.16;;;2.39;100.00
38253;BME280;24785;52.372;20.672;2023-02-14T05:58:23;102413.28;;;2.43;100.00
38253;BME280;24785;52.372;20.672;2023-02-14T06:08:24;102407.84;;;2.37;100.00
38253;BME280;24785;52.372;20.672;2023-02-14T06:18:24;102418.25;;;2.30;100.00
38253;BME280;24785;52.372;20.672;2023-02-14T06:28:27;102417.56;;;2.36;100.00
38253;BME280;24785;52.372;20.672;2023-02-14T06:38:28;102425.84;;;2.33;100.00
38253;BME280;24785;52.372;20.672;2023-02-14T06:48:29;102420.25;;;2.28;100.00
38253;BME280;24785;52.372;20.672;2023-02-14T06:58:30;102424.19;;;2.32;100.00
38253;BME280;24785;52.372;20.672;2023-02-14T07:08:31;102429.97;;;2.36;100.00
38253;BME280;24785;52.372;20.672;2023-02-14T07:18:32;102437.25;;;2.42;100.00
38253;BME280;24785;52.372;20.672;2023-02-14T07:28:33;102443.06;;;2.37;100.00
38253;BME280;24785;52.372;20.672;2023-02-14T07:38:34;102449.66;;;2.41;100.00
38253;BME280;24785;52.372;20.672;2023-02-14T07:48:35;102467.13;;;2.59;100.00
38253;BME280;24785;52.372;20.672;2023-02-14T07:58:38;102468.19;;;2.41;100.00
38253;BME280;24785;52.372;20.672;2023-02-14T08:08:39;102451.69;;;2.23;100.00
38253;BME280;24785;52.372;20.672;2023-02-14T08:18:41;102491.31;;;2.47;100.00
38253;BME280;24785;52.372;20.672;2023-02-14T08:28:42;102491.78;;;2.59;100.00
38253;BME280;24785;52.372;20.672;2023-02-14T08:38:45;102507.16;;;2.56;100.00
38253;BME280;24785;52.372;20.672;2023-02-14T08:48:47;102492.44;;;2.61;100.00
38253;BME280;24785;52.372;20.672;2023-02-14T08:58:53;102511.91;;;2.76;100.00
38253;BME280;24785;52.372;20.672;2023-02-14T09:08:54;102508.25;;;2.86;100.00
38253;BME280;24785;52.372;20.672;2023-02-14T09:18:55;102512.56;;;2.78;100.00
38253;BME280;24785;52.372;20.672;2023-02-14T09:28:56;102518.81;;;2.94;100.00
38253;BME280;24785;52.372;20.672;2023-02-14T09:38:57;102524.41;;;2.99;100.00
38253;BME280;24785;52.372;20.672;2023-02-14T09:48:58;102535.31;;;3.04;100.00
38253;BME280;24785;52.372;20.672;2023-02-14T09:59:28;102524.06;;;3.02;100.00
38253;BME280;24785;52.372;20.672;2023-02-14T10:20:00;102517.25;;;3.38;100.00
38253;BME280;24785;52.372;20.672;2023-02-14T10:30:11;102526.22;;;3.37;100.00
38253;BME280;24785;52.372;20.672;2023-02-14T10:40:48;102522.50;;;3.69;100.00
38253;BME280;24785;52.372;20.672;2023-02-14T10:50:55;102519.16;;;3.53;100.00
38253;BME280;24785;52.372;20.672;2023-02-14T11:01:06;102513.34;;;3.80;100.00
38253;BME280;24785;52.372;20.672;2023-02-14T11:11:26;102503.03;;;3.85;100.00
38253;BME280;24785;52.372;20.672;2023-02-14T11:21:36;102504.09;;;4.14;100.00
38253;BME280;24785;52.372;20.672;2023-02-14T11:31:39;102496.59;;;4.17;100.00
38253;BME280;24785;52.372;20.672;2023-02-14T11:41:55;102480.94;;;4.22;100.00
38253;BME280;24785;52.372;20.672;2023-02-14T11:51:58;102484.19;;;4.47;100.00
38253;BME280;24785;52.372;20.672;2023-02-14T12:02:08;102485.28;;;4.38;100.00
38253;BME280;24785;52.372;20.672;2023-02-14T12:12:21;102469.81;;;4.56;100.00
38253;BME280;24785;52.372;20.672;2023-02-14T12:22:31;102476.31;;;4.54;100.00
38253;BME280;24785;52.372;20.672;2023-02-14T12:32:33;102470.09;;;4.61;100.00
38253;BME280;24785;52.372;20.672;2023-02-14T12:42:51;102461.75;;;4.64;100.00
38253;BME280;24785;52.372;20.672;2023-02-14T12:53:10;102451.84;;;4.88;100.00
38253;BME280;24785;52.372;20.672;2023-02-14T13:03:40;102442.22;;;4.87;100.00
38253;BME280;24785;52.372;20.672;2023-02-14T13:13:59;102438.94;;;5.21;100.00
38253;BME280;24785;52.372;20.672;2023-02-14T13:24:27;102448.00;;;5.26;100.00
38253;BME280;24785;52.372;20.672;2023-02-14T13:34:37;102447.94;;;5.41;100.00
38253;BME280;24785;52.372;20.672;2023-02-14T13:44:48;102449.50;;;5.57;100.00
38253;BME280;24785;52.372;20.672;2023-02-14T13:54:49;102438.72;;;5.65;100.00
38253;BME280;24785;52.372;20.672;2023-02-14T14:04:50;102433.28;;;5.73;100.00
38253;BME280;24785;52.372;20.672;2023-02-14T14:25:04;102433.03;;;5.47;100.00
38253;BME280;24785;52.372;20.672;2023-02-14T14:45:46;102442.75;;;5.33;100.00
38253;BME280;24785;52.372;20.672;2023-02-14T14:55:50;102440.09;;;5.18;100.00
38253;BME280;24785;52.372;20.672;2023-02-14T15:06:04;102446.31;;;5.04;100.00
38253;BME280;24785;52.372;20.672;2023-02-14T15:16:06;102451.63;;;5.04;100.00
38253;BME280;24785;52.372;20.672;2023-02-14T15:26:10;102447.63;;;4.93;100.00
38253;BME280;24785;52.372;20.672;2023-02-14T15:36:19;102445.06;;;4.70;100.00
38253;BME280;24785;52.372;20.672;2023-02-14T15:56:27;102440.44;;;4.43;100.00
38253;BME280;24785;52.372;20.672;2023-02-14T16:16:55;102457.88;;;4.08;100.00
38253;BME280;24785;52.372;20.672;2023-02-14T16:26:56;102476.16;;;3.88;100.00
38253;BME280;24785;52.372;20.672;2023-02-14T16:37:04;102492.06;;;3.65;100.00
38253;BME280;24785;52.372;20.672;2023-02-14T16:48:59;102490.88;;;3.45;100.00
38253;BME280;24785;52.372;20.672;2023-02-14T16:59:00;102500.25;;;3.33;100.00
38253;BME280;24785;52.372;20.672;2023-02-14T17:09:04;102502.31;;;3.14;100.00
38253;BME280;24785;52.372;20.672;2023-02-14T17:19:09;102506.69;;;2.99;100.00
38253;BME280;24785;52.372;20.672;2023-02-14T17:29:10;102498.66;;;2.76;100.00
38253;BME280;24785;52.372;20.672;2023-02-14T17:39:10;102495.56;;;2.65;100.00
38253;BME280;24785;52.372;20.672;2023-02-14T17:49:11;102505.22;;;2.49;100.00
38253;BME280;24785;52.372;20.672;2023-02-14T17:59:12;102501.25;;;2.29;100.00
38253;BME280;24785;52.372;20.672;2023-02-14T18:09:13;102512.38;;;2.00;100.00
38253;BME280;24785;52.372;20.672;2023-02-14T18:19:14;102507.16;;;1.34;100.00
38253;BME280;24785;52.372;20.672;2023-02-14T18:29:18;102502.13;;;0.98;100.00
38253;BME280;24785;52.372;20.672;2023-02-14T18:39:19;102508.44;;;0.71;100.00
38253;BME280;24785;52.372;20.672;2023-02-14T18:49:20;102493.91;;;0.67;100.00
38253;BME280;24785;52.372;20.672;2023-02-14T18:59:21;102501.91;;;0.49;100.00
38253;BME280;24785;52.372;20.672;2023-02-14T19:09:22;102499.34;;;0.40;100.00
38253;BME280;24785;52.372;20.672;2023-02-14T19:19:27;102489.94;;;0.11;100.00
38253;BME280;24785;52.372;20.672;2023-02-14T19:29:28;102504.66;;;-0.22;100.00
38253;BME280;24785;52.372;20.672;2023-02-14T19:39:29;102501.56;;;-0.53;100.00
38253;BME280;24785;52.372;20.672;2023-02-14T19:49:31;102505.47;;;-0.75;100.00
38253;BME280;24785;52.372;20.672;2023-02-14T19:59:31;102507.03;;;-0.82;100.00
38253;BME280;24785;52.372;20.672;2023-02-14T20:09:33;102500.16;;;-0.92;100.00
38253;BME280;24785;52.372;20.672;2023-02-14T20:19:34;102496.16;;;-0.97;100.00
38253;BME280;24785;52.372;20.672;2023-02-14T20:29:36;102480.28;;;-1.05;100.00
38253;BME280;24785;52.372;20.672;2023-02-14T20:39:39;102483.34;;;-1.09;100.00
38253;BME280;24785;52.372;20.672;2023-02-14T20:49:40;102471.00;;;-1.09;100.00
38253;BME280;24785;52.372;20.672;2023-02-14T20:59:44;102483.94;;;-1.15;100.00
38253;BME280;24785;52.372;20.672;2023-02-14T21:09:44;102481.78;;;-1.30;100.00
38253;BME280;24785;52.372;20.672;2023-02-14T21:19:45;102475.47;;;-1.46;100.00
38253;BME280;24785;52.372;20.672;2023-02-14T21:29:46;102467.81;;;-1.67;100.00
38253;BME280;24785;52.372;20.672;2023-02-14T21:39:47;102463.13;;;-1.73;100.00
38253;BME280;24785;52.372;20.672;2023-02-14T21:49:49;102475.88;;;-1.78;100.00
38253;BME280;24785;52.372;20.672;2023-02-14T22:00:09;102451.84;;;-2.03;100.00
38253;BME280;24785;52.372;20.672;2023-02-14T22:10:10;102452.09;;;-1.96;100.00
38253;BME280;24785;52.372;20.672;2023-02-14T22:20:13;102448.16;;;-1.63;100.00
38253;BME280;24785;52.372;20.672;2023-02-14T22:30:14;102449.47;;;-1.49;100.00
38253;BME280;24785;52.372;20.672;2023-02-14T22:40:15;102443.47;;;-1.69;100.00
38253;BME280;24785;52.372;20.672;2023-02-14T22:50:16;102444.47;;;-1.80;100.00
38253;BME280;24785;52.372;20.672;2023-02-14T23:00:17;102439.25;;;-1.52;100.00
38253;BME280;24785;52.372;20.672;2023-02-14T23:10:18;102446.97;;;-1.41;100.00
38253;BME280;24785;52.372;20.672;2023-02-14T23:20:19;102444.22;;;-0.94;100.00
38253;BME280;24785;52.372;20.672;2023-02-14T23:30:38;102444.53;;;-0.62;100.00
38253;BME280;24785;52.372;20.672;2023-02-14T23:40:39;102430.25;;;-0.42;100.00
38253;BME280;24785;52.372;20.672;2023-02-14T23:50:58;102436.16;;;-0.22;100.00
